Time;durP1;ratioP1;P1;durP2;ratioP2;P2;SDS_P1;SDS_P2;PMS_P1;PMS_P2;Temp;Humidity;BMP_temperature;BMP_pressure;BME280_temperature;BME280_humidity;BME280_pressure;Samples;Min_cycle;Max_cycle;Signal;HPM_P1;HPM_P2
2022/09/13 00:01:31;;;;;;;;;9.00;9.00;;;;;23.34;51.37;100491.19;5019233;28;45195;-70
2022/09/13 00:03:57;;;;;;;;;10.33;9.00;;;;;23.32;51.29;100495.19;5018920;28;47875;-71
2022/09/13 00:06:22;;;;;;;;;8.67;8.67;;;;;23.29;51.72;100492.94;5018607;28;45357;-70
2022/09/13 00:08:48;;;;;;;;;12.67;12.67;;;;;23.22;52.06;100484.91;5016638;28;55806;-71
2022/09/13 00:11:28;;;;;;;;;14.00;10.00;;;;;23.20;52.02;100489.75;5018898;28;45456;-70
2022/09/13 00:13:54;;;;;;;;;10.00;10.00;;;;;23.08;51.76;100472.63;5019016;28;45552;-71
2022/09/13 00:16:23;;;;;;;;;10.67;10.67;;;;;22.76;52.04;100448.47;5018986;28;45331;-71
2022/09/13 00:18:48;;;;;;;;;10.67;8.67;;;;;22.67;51.74;100411.09;5018146;28;45882;-71
2022/09/13 00:21:16;;;;;;;;;10.33;8.33;;;;;23.21;51.40;100504.94;5017320;28;45705;-70
2022/09/13 00:23:47;;;;;;;;;8.67;7.00;;;;;23.15;51.75;100492.31;5019041;28;45372;-71
2022/09/13 00:26:15;;;;;;;;;10.00;10.00;;;;;22.46;51.98;100382.66;5018980;28;45554;-71
2022/09/13 00:28:41;;;;;;;;;9.00;8.67;;;;;23.05;51.53;100481.25;5018444;28;47541;-70
2022/09/13 00:31:08;;;;;;;;;10.67;10.00;;;;;23.13;51.51;100489.03;5018739;28;45420;-71
2022/09/13 00:33:34;;;;;;;;;10.00;9.00;;;;;23.10;51.71;100503.06;5018777;28;45443;-71
2022/09/13 00:36:04;;;;;;;;;11.67;8.67;;;;;23.09;52.26;100490.56;5019138;28;45312;-69
2022/09/13 00:38:30;;;;;;;;;12.67;10.33;;;;;23.04;52.17;100480.41;5018222;28;45854;-71
2022/09/13 00:40:55;;;;;;;;;12.00;10.67;;;;;23.02;52.29;100473.53;5018335;28;45517;-70
2022/09/13 00:43:40;;;;;;;;;9.00;9.00;;;;;22.97;52.69;100468.00;5018828;28;45457;-70
2022/09/13 00:46:07;;;;;;;;;11.67;9.67;;;;;22.89;52.85;100447.47;5017393;28;45524;-70
2022/09/13 00:48:35;;;;;;;;;7.33;7.33;;;;;22.81;52.60;100430.66;5017572;28;46072;-70
2022/09/13 00:51:01;;;;;;;;;10.67;9.00;;;;;23.00;52.76;100453.97;5018066;28;45489;-71
2022/09/13 00:53:32;;;;;;;;;10.00;10.00;;;;;22.90;52.28;100437.47;5018233;28;45364;-70
2022/09/13 00:56:01;;;;;;;;;7.00;7.00;;;;;22.73;52.37;100421.81;5018429;28;45388;-70
2022/09/13 00:58:40;;;;;;;;;13.33;10.67;;;;;22.53;52.78;100390.66;5016602;28;49153;-70
2022/09/13 01:01:09;;;;;;;;;11.33;9.33;;;;;22.96;52.73;100447.38;5017715;28;45326;-69
2022/09/13 01:03:35;;;;;;;;;9.67;7.67;;;;;23.02;52.33;100454.56;5018313;28;45483;-70
2022/09/13 01:06:14;;;;;;;;;11.33;11.33;;;;;23.03;52.72;100453.53;5016933;28;45481;-71
2022/09/13 01:08:43;;;;;;;;;9.00;9.00;;;;;22.92;52.70;100433.47;5017866;28;45306;-71
2022/09/13 01:11:15;;;;;;;;;11.67;9.00;;;;;23.03;53.17;100454.34;5018016;28;45483;-71
2022/09/13 01:13:40;;;;;;;;;15.00;11.00;;;;;22.99;52.42;100441.47;5018203;28;45504;-70
2022/09/13 01:16:06;;;;;;;;;12.00;11.00;;;;;22.84;52.42;100414.00;5018344;28;45588;-71
2022/09/13 01:18:31;;;;;;;;;13.00;10.00;;;;;22.97;53.03;100433.56;5017478;28;47641;-70
2022/09/13 01:21:20;;;;;;;;;11.00;11.00;;;;;22.99;52.68;100430.63;5018185;28;45515;-71
2022/09/13 01:24:07;;;;;;;;;10.00;9.33;;;;;22.93;53.28;100432.41;5018105;28;45218;-71
2022/09/13 01:26:35;;;;;;;;;15.33;13.00;;;;;22.88;53.22;100434.16;5016683;28;45483;-70
2022/09/13 01:29:25;;;;;;;;;14.33;10.00;;;;;22.89;52.98;100436.63;5017834;28;45510;-71
2022/09/13 01:32:07;;;;;;;;;12.00;11.67;;;;;22.76;53.26;100409.69;5017565;28;45408;-68
2022/09/13 01:34:39;;;;;;;;;12.33;12.33;;;;;22.94;52.77;100441.34;5017882;28;45542;-70
2022/09/13 01:37:12;;;;;;;;;15.33;14.00;;;;;22.83;52.85;100412.34;5017734;28;45331;-70
2022/09/13 01:40:16;;;;;;;;;15.00;12.33;;;;;22.98;52.72;100431.69;5017526;28;46697;-70
2022/09/13 01:42:57;;;;;;;;;13.00;11.33;;;;;22.98;52.30;100437.94;5016664;28;45387;-71
2022/09/13 01:45:44;;;;;;;;;17.67;13.67;;;;;22.95;52.32;100419.44;5017328;28;45466;-70
2022/09/13 01:48:12;;;;;;;;;11.33;10.00;;;;;22.96;52.57;100420.25;5017690;28;45219;-70
2022/09/13 01:50:44;;;;;;;;;11.67;9.33;;;;;22.98;52.47;100415.44;5016042;28;45670;-69
2022/09/13 01:53:22;;;;;;;;;13.67;11.33;;;;;22.98;52.53;100428.97;5016955;28;45501;-69
2022/09/13 01:55:58;;;;;;;;;9.00;9.00;;;;;22.48;52.57;100329.06;5017463;28;45309;-71
2022/09/13 01:58:39;;;;;;;;;13.00;11.33;;;;;23.01;52.49;100404.09;5017288;28;45360;-70
2022/09/13 02:01:15;;;;;;;;;12.67;9.00;;;;;23.02;52.52;100408.47;5017144;28;45773;-70
2022/09/13 02:03:57;;;;;;;;;12.00;12.00;;;;;23.04;52.04;100412.63;5017185;28;45248;-70
2022/09/13 02:06:32;;;;;;;;;12.00;12.00;;;;;22.98;52.15;100397.28;5015715;28;45406;-70
2022/09/13 02:09:02;;;;;;;;;11.67;10.00;;;;;22.91;52.05;100385.72;5017344;28;45345;-70
2022/09/13 02:11:27;;;;;;;;;8.00;8.00;;;;;22.82;51.98;100381.69;5015383;28;47601;-71
2022/09/13 02:14:04;;;;;;;;;11.67;11.67;;;;;22.56;52.22;100334.13;5016952;28;45207;-69
2022/09/13 02:16:35;;;;;;;;;10.33;9.00;;;;;22.92;51.85;100408.22;5017283;28;45302;-72
2022/09/13 02:19:17;;;;;;;;;11.33;10.67;;;;;22.85;52.21;100399.41;5017284;28;45510;-69
2022/09/13 02:21:48;;;;;;;;;14.33;10.00;;;;;22.73;52.16;100372.22;5016921;28;45562;-69
2022/09/13 02:24:40;;;;;;;;;11.33;11.33;;;;;22.79;52.23;100390.25;5016874;28;45357;-70
2022/09/13 02:27:14;;;;;;;;;12.33;9.00;;;;;22.76;52.46;100393.44;5017014;28;45320;-70
2022/09/13 02:29:43;;;;;;;;;11.33;10.00;;;;;22.59;52.27;100374.31;5016499;28;45246;-70
2022/09/13 02:32:15;;;;;;;;;10.00;9.67;;;;;22.53;52.70;100367.09;5016746;28;45975;-70
2022/09/13 02:34:52;;;;;;;;;10.33;10.33;;;;;22.62;52.54;100386.56;5016918;28;45206;-70
2022/09/13 02:37:19;;;;;;;;;11.67;8.67;;;;;22.62;52.75;100381.97;5016996;28;45285;-69
2022/09/13 02:40:01;;;;;;;;;10.33;9.33;;;;;22.55;52.81;100381.25;5016843;28;45502;-70
2022/09/13 02:42:40;;;;;;;;;10.00;10.00;;;;;22.62;53.20;100381.97;5016255;28;46444;-69
2022/09/13 02:45:07;;;;;;;;;9.67;8.33;;;;;22.17;52.84;100309.28;5016649;28;45523;-71
2022/09/13 02:47:51;;;;;;;;;8.00;7.00;;;;;22.65;52.84;100376.09;5015693;28;45362;-71
2022/09/13 02:51:01;;;;;;;;;9.33;9.33;;;;;22.61;53.02;100368.66;5015456;28;45657;-71
2022/09/13 02:53:41;;;;;;;;;8.00;8.00;;;;;22.58;52.92;100369.94;4978036;28;48378;-70
2022/09/13 02:56:09;;;;;;;;;6.00;6.00;;;;;22.54;53.43;100368.75;5014993;28;45329;-70
2022/09/13 02:58:46;;;;;;;;;6.00;6.00;;;;;22.57;52.98;100368.28;5016651;28;45438;-69
2022/09/13 03:01:13;;;;;;;;;7.67;6.33;;;;;22.53;52.74;100361.69;5016957;28;45428;-69
2022/09/13 03:03:38;;;;;;;;;6.00;6.00;;;;;22.63;52.54;100383.66;5017015;28;46195;-70
2022/09/13 03:06:04;;;;;;;;;6.00;5.00;;;;;22.60;52.97;100367.81;5016942;28;45309;-69
2022/09/13 03:08:30;;;;;;;;;8.00;5.33;;;;;22.55;52.59;100364.16;5015330;28;45446;-71
2022/09/13 03:11:37;;;;;;;;;4.33;4.33;;;;;22.63;52.32;100356.53;5016724;28;45833;-70
2022/09/13 03:14:19;;;;;;;;;7.67;6.67;;;;;22.55;52.42;100348.72;4996673;28;45770;-71
2022/09/13 03:16:50;;;;;;;;;6.33;6.33;;;;;22.56;52.70;100365.81;4996565;28;45405;-70
2022/09/13 03:19:49;;;;;;;;;6.00;6.00;;;;;22.54;52.72;100363.34;4996728;28;45230;-70
2022/09/13 03:22:43;;;;;;;;;5.33;4.00;;;;;22.55;53.05;100366.88;4996705;28;45404;-69
2022/09/13 03:25:23;;;;;;;;;5.67;5.67;;;;;22.53;52.85;100355.44;4996285;28;47697;-70
2022/09/13 03:28:04;;;;;;;;;4.67;4.67;;;;;22.53;52.94;100356.28;4996324;28;45501;-70
2022/09/13 03:30:34;;;;;;;;;6.00;4.67;;;;;22.53;52.85;100361.69;4996500;28;45435;-70
2022/09/13 03:33:35;;;;;;;;;5.00;5.00;;;;;21.93;52.51;100256.09;4996792;28;45625;-70
2022/09/13 03:36:12;;;;;;;;;5.67;5.00;;;;;22.61;52.90;100374.91;4995711;28;46550;-70
2022/09/13 03:39:00;;;;;;;;;7.33;4.00;;;;;22.63;52.40;100364.69;4996277;28;45996;-69
2022/09/13 03:41:35;;;;;;;;;6.00;5.00;;;;;22.63;52.72;100372.81;5001390;28;45372;-71
2022/09/13 03:44:06;;;;;;;;;6.00;6.00;;;;;22.61;52.67;100369.47;5035165;28;45240;-71
2022/09/13 03:46:37;;;;;;;;;5.67;5.00;;;;;22.20;52.45;100299.06;5019239;28;45751;-70
2022/09/13 03:49:07;;;;;;;;;5.67;5.00;;;;;22.57;52.50;100364.75;5017967;28;45418;-68
2022/09/13 03:51:34;;;;;;;;;7.33;5.67;;;;;22.63;52.29;100375.50;5034736;28;45556;-70
2022/09/13 03:54:04;;;;;;;;;7.00;6.67;;;;;22.63;52.65;100372.81;5017861;28;45226;-71
2022/09/13 03:56:29;;;;;;;;;5.33;4.00;;;;;22.27;52.37;100303.34;5019079;28;45893;-71
2022/09/13 03:58:55;;;;;;;;;6.00;5.67;;;;;22.68;52.62;100353.97;5017642;28;46455;-70
2022/09/13 04:01:23;;;;;;;;;7.33;7.33;;;;;22.69;52.57;100355.59;5019213;28;45291;-70
2022/09/13 04:03:49;;;;;;;;;4.33;4.33;;;;;22.66;52.61;100345.25;5019432;28;45357;-71
2022/09/13 04:06:15;;;;;;;;;5.00;5.00;;;;;22.70;52.62;100359.13;5018945;28;45692;-70
2022/09/13 04:08:40;;;;;;;;;6.00;5.00;;;;;22.31;52.32;100303.69;5017786;28;45259;-70
2022/09/13 04:11:06;;;;;;;;;7.00;5.67;;;;;22.72;52.42;100376.81;5018502;28;45463;-68
2022/09/13 04:13:31;;;;;;;;;6.67;5.33;;;;;22.74;53.02;100380.13;5018941;28;45375;-69
2022/09/13 04:16:01;;;;;;;;;5.33;5.33;;;;;22.72;52.50;100365.97;5018785;28;45906;-70
2022/09/13 04:18:27;;;;;;;;;6.33;6.33;;;;;22.66;52.33;100350.66;5033707;28;45619;-69
2022/09/13 04:20:54;;;;;;;;;7.33;6.33;;;;;22.73;52.32;100353.25;5034070;28;45418;-71
2022/09/13 04:23:20;;;;;;;;;5.00;5.00;;;;;22.62;52.57;100338.59;5019058;28;45349;-70
2022/09/13 04:25:46;;;;;;;;;7.00;7.00;;;;;22.77;52.64;100359.84;5018552;28;46619;-71
2022/09/13 04:28:11;;;;;;;;;6.67;6.67;;;;;22.75;52.60;100370.09;5018689;28;45286;-71
2022/09/13 04:30:36;;;;;;;;;7.67;6.67;;;;;22.70;53.28;100368.09;5017707;28;45217;-70
2022/09/13 04:33:02;;;;;;;;;7.00;5.33;;;;;22.78;53.51;100392.13;5033467;28;57831;-71
2022/09/13 04:35:27;;;;;;;;;4.00;4.00;;;;;22.76;53.53;100369.88;5016524;28;47389;-70
2022/09/13 04:37:57;;;;;;;;;6.33;5.33;;;;;22.80;52.92;100361.25;5018046;28;45514;-71
2022/09/13 04:40:23;;;;;;;;;6.00;6.00;;;;;22.76;53.19;100344.66;5018429;28;46278;-70
2022/09/13 04:42:48;;;;;;;;;8.33;6.33;;;;;22.39;53.31;100292.50;5018420;28;45393;-69
2022/09/13 04:45:14;;;;;;;;;5.33;5.33;;;;;22.82;52.94;100380.84;5018417;28;46366;-70
2022/09/13 04:47:39;;;;;;;;;5.00;5.00;;;;;22.72;52.86;100355.13;5018500;28;45310;-69
2022/09/13 04:50:06;;;;;;;;;7.00;7.00;;;;;22.81;53.11;100365.63;5018862;28;45483;-70
2022/09/13 04:52:31;;;;;;;;;6.00;6.00;;;;;22.77;53.29;100378.81;5017437;28;45673;-71
2022/09/13 04:55:00;;;;;;;;;7.67;5.00;;;;;22.80;53.66;100383.78;5017730;28;45767;-70
2022/09/13 04:57:26;;;;;;;;;6.67;6.67;;;;;22.75;53.48;100372.81;5018442;28;45498;-68
2022/09/13 04:59:51;;;;;;;;;5.00;4.00;;;;;22.73;53.14;100381.19;5018348;28;45511;-71
2022/09/13 05:02:16;;;;;;;;;7.00;7.00;;;;;22.78;53.08;100375.06;5018679;28;45557;-72
2022/09/13 05:04:41;;;;;;;;;6.33;5.33;;;;;22.68;53.46;100359.38;5018190;28;46231;-72
2022/09/13 05:07:07;;;;;;;;;8.33;7.67;;;;;22.35;53.47;100294.03;5017819;28;45480;-72
2022/09/13 05:09:32;;;;;;;;;7.00;7.00;;;;;22.70;52.88;100351.84;5016364;28;53312;-72
2022/09/13 05:11:58;;;;;;;;;8.00;7.00;;;;;22.63;53.56;100343.00;5017906;28;45222;-71
2022/09/13 05:14:24;;;;;;;;;7.67;6.00;;;;;22.04;53.38;100252.66;5016866;28;46011;-71
2022/09/13 05:16:49;;;;;;;;;8.33;7.67;;;;;22.66;53.40;100376.94;5017884;28;45373;-72
2022/09/13 05:19:15;;;;;;;;;7.00;7.00;;;;;22.60;53.64;100381.38;5017410;28;58705;-72
2022/09/13 05:21:40;;;;;;;;;7.33;6.00;;;;;22.11;53.35;100312.09;5016242;28;45447;-71
2022/09/13 05:24:05;;;;;;;;;5.00;5.00;;;;;22.56;53.64;100388.31;5017002;28;46301;-71
2022/09/13 05:26:31;;;;;;;;;5.33;5.33;;;;;22.57;53.72;100384.53;5017655;28;45217;-71
2022/09/13 05:28:59;;;;;;;;;6.33;4.67;;;;;22.61;53.70;100383.03;5017895;28;45402;-71
2022/09/13 05:31:30;;;;;;;;;5.33;5.00;;;;;22.57;54.01;100389.97;5018421;28;45533;-70
2022/09/13 05:34:02;;;;;;;;;8.00;6.33;;;;;22.55;54.13;100388.53;5021993;28;46462;-70
2022/09/13 05:36:28;;;;;;;;;6.67;5.00;;;;;22.51;53.83;100380.06;5031239;28;46482;-71
2022/09/13 05:38:54;;;;;;;;;6.00;4.33;;;;;21.91;54.15;100279.88;5037569;28;45503;-70
2022/09/13 05:41:19;;;;;;;;;5.33;5.00;;;;;22.48;54.06;100375.09;5032387;28;45325;-70
2022/09/13 05:43:45;;;;;;;;;3.33;3.33;;;;;22.45;53.53;100378.28;5017528;28;45579;-72
2022/09/13 05:46:15;;;;;;;;;3.00;3.00;;;;;22.46;54.07;100382.66;5025769;28;45484;-71
2022/09/13 05:48:41;;;;;;;;;7.00;6.00;;;;;22.49;54.04;100387.59;5032549;28;45351;-71
2022/09/13 05:51:12;;;;;;;;;5.00;5.00;;;;;22.52;53.90;100386.31;5017059;28;45351;-72
2022/09/13 05:53:39;;;;;;;;;2.67;1.00;;;;;22.47;53.95;100384.28;5016826;28;45720;-70
2022/09/13 05:56:11;;;;;;;;;5.33;5.00;;;;;22.44;53.91;100380.16;5016565;28;45408;-71
2022/09/13 05:58:44;;;;;;;;;8.00;5.00;;;;;22.52;54.25;100381.72;5026631;28;45431;-70
2022/09/13 06:01:11;;;;;;;;;4.00;4.00;;;;;22.51;54.21;100376.53;4997452;28;45260;-73
2022/09/13 06:03:37;;;;;;;;;6.67;5.33;;;;;22.52;53.79;100378.19;5029065;28;47392;-69
2022/09/13 06:06:04;;;;;;;;;5.67;5.67;;;;;22.44;53.88;100363.09;5021336;28;45439;-71
2022/09/13 06:08:31;;;;;;;;;4.67;4.67;;;;;22.42;53.69;100360.59;5035173;28;45458;-70
2022/09/13 06:11:05;;;;;;;;;3.67;3.67;;;;;21.93;53.61;100299.41;5003305;28;45487;-70
2022/09/13 06:13:31;;;;;;;;;4.00;4.00;;;;;22.29;53.70;100354.56;5024669;28;45541;-70
2022/09/13 06:15:59;;;;;;;;;7.00;6.00;;;;;22.35;54.02;100369.88;5017764;28;45333;-69
2022/09/13 06:18:25;;;;;;;;;5.67;4.67;;;;;22.37;53.93;100367.75;5017003;28;45206;-70
2022/09/13 06:20:58;;;;;;;;;5.33;5.33;;;;;22.18;53.84;100339.91;5015920;28;45231;-73
2022/09/13 06:23:23;;;;;;;;;6.33;6.00;;;;;22.16;54.11;100332.00;5030119;28;46565;-81
2022/09/13 06:25:49;;;;;;;;;5.33;4.00;;;;;22.28;53.78;100350.19;5032816;28;45277;-69
2022/09/13 06:28:14;;;;;;;;;6.67;6.67;;;;;22.14;54.47;100317.88;5015730;28;45488;-70
2022/09/13 06:30:39;;;;;;;;;7.00;6.00;;;;;22.22;53.75;100326.72;5012237;28;45410;-70
2022/09/13 06:33:05;;;;;;;;;8.00;6.67;;;;;22.10;54.21;100318.56;4996834;28;46487;-71
2022/09/13 06:35:30;;;;;;;;;8.00;8.00;;;;;22.26;54.32;100346.91;4997112;28;45493;-69
2022/09/13 06:37:58;;;;;;;;;7.00;6.00;;;;;21.76;54.36;100236.16;4999070;28;45575;-72
2022/09/13 06:40:25;;;;;;;;;7.00;6.00;;;;;22.37;54.25;100324.41;4998852;28;45534;-70
2022/09/13 06:42:50;;;;;;;;;4.67;4.67;;;;;22.26;54.01;100290.03;5013463;28;46367;-71
2022/09/13 06:45:17;;;;;;;;;4.67;4.00;;;;;22.52;53.96;100322.13;5014815;28;45334;-69
2022/09/13 06:47:42;;;;;;;;;5.00;5.00;;;;;22.27;53.31;100260.00;5016263;28;46379;-70
2022/09/13 06:50:08;;;;;;;;;5.67;5.67;;;;;22.27;53.25;100227.50;5030462;28;45527;-72
2022/09/13 06:52:34;;;;;;;;;6.67;6.33;;;;;22.89;52.89;100306.53;5032223;28;46293;-71
2022/09/13 06:54:59;;;;;;;;;7.00;7.00;;;;;22.94;52.44;100268.69;5036335;28;45743;-74
2022/09/13 06:57:24;;;;;;;;;5.33;5.33;;;;;23.12;52.06;100302.97;5016661;28;45344;-72
2022/09/13 06:59:50;;;;;;;;;9.00;9.00;;;;;23.04;51.90;100281.66;5013989;28;45211;-71
2022/09/13 07:02:15;;;;;;;;;5.00;5.00;;;;;22.83;52.39;100230.75;5016275;28;45490;-70
2022/09/13 07:04:41;;;;;;;;;6.33;6.33;;;;;23.04;52.37;100278.94;5016366;28;45214;-70
2022/09/13 07:07:06;;;;;;;;;6.67;4.00;;;;;22.92;52.78;100272.69;5048309;28;45421;-73
2022/09/13 07:09:33;;;;;;;;;6.67;6.33;;;;;22.84;53.05;100267.63;5016501;28;45329;-71
2022/09/13 07:11:58;;;;;;;;;6.67;6.67;;;;;22.91;52.89;100260.19;5016049;28;45222;-71
2022/09/13 07:14:26;;;;;;;;;8.00;6.33;;;;;22.83;52.96;100252.44;5016069;28;45258;-71
2022/09/13 07:16:53;;;;;;;;;6.00;6.00;;;;;22.93;52.79;100263.50;5015966;28;45475;-71
2022/09/13 07:19:26;;;;;;;;;7.33;6.33;;;;;22.91;52.89;100271.03;5013895;28;46170;-72
2022/09/13 07:21:53;;;;;;;;;8.33;7.00;;;;;22.45;53.04;100196.78;5017263;28;46954;-70
2022/09/13 07:24:19;;;;;;;;;5.00;5.00;;;;;22.84;53.06;100264.94;5019075;28;45416;-71
2022/09/13 07:26:45;;;;;;;;;6.00;6.00;;;;;22.87;53.20;100259.03;5023339;28;45606;-70
2022/09/13 07:29:17;;;;;;;;;8.67;7.67;;;;;22.50;53.06;100180.66;5019989;28;45490;-69
2022/09/13 07:31:45;;;;;;;;;8.00;8.00;;;;;22.98;52.89;100260.88;5018736;28;45813;-68
2022/09/13 07:34:13;;;;;;;;;3.33;3.33;;;;;22.95;52.82;100272.22;5001904;28;45340;-69
2022/09/13 07:36:39;;;;;;;;;4.00;4.00;;;;;22.95;52.93;100255.94;4999672;28;45256;-69
2022/09/13 07:39:05;;;;;;;;;5.67;5.33;;;;;22.98;52.50;100239.19;4999433;28;45337;-70
2022/09/13 07:41:32;;;;;;;;;6.33;6.33;;;;;23.19;52.02;100251.31;4999320;28;46304;-68
2022/09/13 07:44:03;;;;;;;;;6.33;5.33;;;;;23.57;51.51;100270.59;5015590;28;45490;-69
2022/09/13 07:46:31;;;;;;;;;8.33;7.00;;;;;23.69;51.40;100265.13;5025651;28;45423;-68
2022/09/13 07:48:57;;;;;;;;;6.00;6.00;;;;;23.82;50.33;100272.16;5034188;28;45521;-70
2022/09/13 07:51:25;;;;;;;;;7.33;5.33;;;;;23.77;50.30;100243.03;5018750;28;45752;-68
2022/09/13 07:53:53;;;;;;;;;7.67;5.67;;;;;23.96;50.17;100285.19;5033413;28;45303;-69
2022/09/13 07:56:21;;;;;;;;;5.33;4.33;;;;;23.86;50.08;100266.03;5018544;28;45670;-68
2022/09/13 07:58:48;;;;;;;;;4.00;4.00;;;;;23.68;50.02;100228.22;5019015;28;45462;-69
2022/09/13 08:01:35;;;;;;;;;6.33;6.33;;;;;23.98;49.80;100276.81;5018847;28;46848;-67
2022/09/13 08:04:04;;;;;;;;;6.00;6.00;;;;;23.84;50.03;100248.34;5019035;28;45310;-68
2022/09/13 08:06:32;;;;;;;;;5.00;5.00;;;;;24.03;49.67;100276.94;5019219;28;45539;-69
2022/09/13 08:08:57;;;;;;;;;6.00;6.00;;;;;23.91;49.97;100254.41;5018934;28;45482;-69
2022/09/13 08:11:35;;;;;;;;;6.00;6.00;;;;;24.12;49.71;100285.50;5018674;28;47341;-68
2022/09/13 08:14:01;;;;;;;;;6.33;6.33;;;;;24.17;50.11;100285.56;5018882;28;45548;-68
2022/09/13 08:16:29;;;;;;;;;5.00;5.00;;;;;23.75;49.08;100222.63;5018857;28;45308;-69
2022/09/13 08:18:58;;;;;;;;;7.67;6.33;;;;;24.15;49.68;100279.56;5018671;28;45690;-70
2022/09/13 08:21:24;;;;;;;;;5.00;5.00;;;;;24.19;49.28;100283.44;5017128;28;45885;-69
2022/09/13 08:23:55;;;;;;;;;6.00;5.00;;;;;24.09;49.27;100261.53;5018963;28;45433;-70
2022/09/13 08:26:20;;;;;;;;;6.00;6.00;;;;;24.18;49.73;100276.34;5019373;28;45384;-71
2022/09/13 08:28:45;;;;;;;;;7.00;7.00;;;;;24.26;49.86;100278.69;5016531;28;45532;-69
2022/09/13 08:31:16;;;;;;;;;9.67;8.67;;;;;24.25;49.92;100277.03;5017655;28;62880;-70
2022/09/13 08:33:44;;;;;;;;;6.00;6.00;;;;;24.21;49.84;100270.44;5025520;28;45486;-72
2022/09/13 08:36:09;;;;;;;;;7.00;7.00;;;;;23.87;49.74;100226.13;5022584;28;45633;-69
2022/09/13 08:38:35;;;;;;;;;6.00;6.00;;;;;24.08;49.63;100270.75;5018166;28;45465;-70
2022/09/13 08:41:23;;;;;;;;;6.00;5.00;;;;;24.16;49.75;100275.78;5017366;28;46319;-71
2022/09/13 08:43:55;;;;;;;;;5.00;4.00;;;;;23.89;50.06;100265.53;4996080;28;45420;-70
2022/09/13 08:46:28;;;;;;;;;4.00;4.00;;;;;23.92;50.27;100273.19;4994740;28;45488;-69
2022/09/13 08:48:59;;;;;;;;;5.00;4.00;;;;;24.08;50.17;100303.34;4997259;28;45538;-70
2022/09/13 08:51:33;;;;;;;;;5.33;5.33;;;;;24.18;49.83;100308.94;4997469;28;45920;-71
2022/09/13 08:53:59;;;;;;;;;5.33;4.00;;;;;24.05;50.10;100291.09;5008805;28;45453;-69
2022/09/13 08:56:52;;;;;;;;;4.00;4.00;;;;;24.18;50.33;100319.81;5017722;28;45309;-72
2022/09/13 08:59:23;;;;;;;;;7.00;4.33;;;;;24.14;49.43;100315.94;4989803;28;45524;-71
2022/09/13 09:02:19;;;;;;;;;5.33;4.67;;;;;24.13;50.14;100325.97;5018008;28;46588;-71
2022/09/13 09:05:11;;;;;;;;;8.67;6.00;;;;;24.02;50.55;100293.44;5017935;28;45405;-70
2022/09/13 09:07:43;;;;;;;;;5.33;5.33;;;;;24.15;50.28;100325.75;5017693;28;45409;-71
2022/09/13 09:10:45;;;;;;;;;7.33;6.33;;;;;24.19;50.14;100321.47;5021362;28;45534;-71
2022/09/13 09:13:26;;;;;;;;;4.33;4.33;;;;;24.25;50.59;100315.06;5008738;28;46182;-70
2022/09/13 09:15:57;;;;;;;;;4.33;4.33;;;;;24.39;50.22;100338.16;5017051;28;45499;-71
2022/09/13 09:18:37;;;;;;;;;4.67;4.00;;;;;24.27;49.72;100334.66;5017346;28;45521;-71
2022/09/13 09:21:03;;;;;;;;;5.33;5.33;;;;;24.33;50.10;100344.56;5018133;28;45278;-71
2022/09/13 09:23:53;;;;;;;;;4.00;4.00;;;;;24.41;49.69;100344.16;5017501;28;45793;-69
2022/09/13 09:26:24;;;;;;;;;6.67;4.67;;;;;24.45;50.75;100336.38;5045061;28;45987;-70
2022/09/13 09:28:54;;;;;;;;;4.33;4.33;;;;;24.39;50.64;100329.19;5017244;28;45316;-70
2022/09/13 09:31:34;;;;;;;;;4.33;4.33;;;;;24.43;51.38;100317.59;5017257;28;45383;-70
2022/09/13 09:34:16;;;;;;;;;6.33;5.00;;;;;24.50;51.46;100339.19;5026350;28;47784;-71
2022/09/13 09:36:48;;;;;;;;;6.67;5.00;;;;;24.53;50.79;100331.34;5037310;28;45301;-71
2022/09/13 09:39:15;;;;;;;;;8.00;6.67;;;;;24.41;50.45;100308.03;5029936;28;45358;-70
2022/09/13 09:41:42;;;;;;;;;6.00;6.00;;;;;24.64;50.27;100339.69;5025218;28;46420;-71
2022/09/13 09:44:08;;;;;;;;;7.00;7.00;;;;;24.68;50.84;100340.84;5016303;28;46213;-70
2022/09/13 09:46:38;;;;;;;;;8.33;7.33;;;;;24.75;51.05;100352.38;5015638;28;45681;-71
2022/09/13 09:50:07;;;;;;;;;6.00;5.67;;;;;24.68;50.21;100335.41;5022980;28;45495;-72
2022/09/13 09:52:05;;;;;;;;;8.00;6.00;;;;;24.43;50.52;100278.75;5036931;28;45278;-70
2022/09/13 09:54:33;;;;;;;;;6.67;6.33;;;;;24.81;50.48;100346.75;5050498;28;46767;-70
2022/09/13 09:57:00;;;;;;;;;4.00;3.00;;;;;24.72;50.46;100342.00;5022795;28;45548;-70
2022/09/13 09:59:31;;;;;;;;;5.00;5.00;;;;;24.81;50.83;100346.75;5016983;28;45163;-70
2022/09/13 10:01:58;;;;;;;;;8.33;7.00;;;;;24.80;50.47;100347.81;5017231;28;45438;-70
2022/09/13 10:04:24;;;;;;;;;5.00;4.00;;;;;24.75;50.19;100327.91;5016958;28;45816;-69
2022/09/13 10:07:08;;;;;;;;;6.00;6.00;;;;;24.82;50.40;100325.81;5014734;28;46834;-71
2022/09/13 10:09:37;;;;;;;;;7.00;7.00;;;;;24.75;50.07;100298.00;5019370;28;45464;-71
2022/09/13 10:12:03;;;;;;;;;8.67;8.67;;;;;24.99;49.79;100343.00;5016428;28;45416;-71
2022/09/13 10:14:41;;;;;;;;;6.67;6.00;;;;;25.10;49.44;100350.25;5023502;28;45401;-69
2022/09/13 10:17:28;;;;;;;;;6.33;6.33;;;;;25.16;49.32;100348.41;5021181;28;45377;-69
2022/09/13 10:20:18;;;;;;;;;6.33;5.33;;;;;25.16;49.10;100351.13;5029671;28;45447;-70
2022/09/13 10:23:04;;;;;;;;;6.00;6.00;;;;;25.20;48.41;100337.84;4997668;28;45580;-70
2022/09/13 10:25:30;;;;;;;;;5.00;5.00;;;;;25.36;48.22;100358.78;4996872;28;46658;-70
2022/09/13 10:27:59;;;;;;;;;5.33;5.00;;;;;25.33;47.87;100357.38;4996942;28;45440;-72
2022/09/13 10:30:39;;;;;;;;;7.00;7.00;;;;;25.29;47.63;100353.53;4996970;28;45261;-70
2022/09/13 10:33:19;;;;;;;;;5.67;5.67;;;;;25.36;47.91;100345.16;4996169;28;45528;-71
2022/09/13 10:35:48;;;;;;;;;5.00;5.00;;;;;25.39;47.41;100337.31;4996911;28;45839;-69
2022/09/13 10:38:35;;;;;;;;;5.00;5.00;;;;;25.39;47.24;100345.47;4996606;28;45419;-69
2022/09/13 10:41:04;;;;;;;;;3.00;3.00;;;;;25.22;46.90;100319.38;4996989;28;45336;-71
2022/09/13 10:43:31;;;;;;;;;4.33;4.33;;;;;25.26;47.36;100328.72;4995780;28;45186;-73
2022/09/13 10:46:00;;;;;;;;;7.67;7.67;;;;;25.18;47.18;100314.44;5016601;28;46138;-72
2022/09/13 10:48:30;;;;;;;;;7.00;6.67;;;;;24.94;47.21;100266.75;5015248;28;47070;-70
2022/09/13 10:51:03;;;;;;;;;8.00;8.00;;;;;24.86;47.45;100248.16;5016401;28;45404;-71
2022/09/13 10:53:40;;;;;;;;;4.67;4.67;;;;;25.46;47.57;100323.53;5020253;28;45494;-71
2022/09/13 10:56:19;;;;;;;;;4.00;4.00;;;;;25.65;47.07;100330.31;5035290;28;46780;-71
2022/09/13 10:58:44;;;;;;;;;6.00;6.00;;;;;25.81;47.07;100330.53;5019943;28;45633;-71
2022/09/13 11:01:48;;;;;;;;;9.00;5.67;;;;;25.45;46.96;100242.97;5018057;28;52940;-72
2022/09/13 11:04:31;;;;;;;;;7.00;7.00;;;;;26.06;45.95;100317.22;5018531;28;45496;-71
2022/09/13 11:07:34;;;;;;;;;6.00;5.00;;;;;26.07;46.07;100308.78;5018253;28;47439;-69
2022/09/13 11:10:09;;;;;;;;;6.00;6.00;;;;;26.29;45.84;100305.19;5019409;28;45606;-71
2022/09/13 11:13:06;;;;;;;;;5.67;5.67;;;;;26.47;45.32;100306.72;5019671;28;48024;-70
2022/09/13 11:16:05;;;;;;;;;7.67;7.67;;;;;26.63;45.22;100309.34;5019827;28;45262;-71
2022/09/13 11:18:36;;;;;;;;;6.00;3.33;;;;;26.62;44.29;100323.19;5018628;28;45761;-70
2022/09/13 11:21:28;;;;;;;;;6.00;5.00;;;;;26.67;44.40;100304.19;5018610;28;45356;-70
2022/09/13 11:23:53;;;;;;;;;1.00;1.00;;;;;26.77;44.16;100301.50;5007749;28;45400;-71
2022/09/13 11:26:46;;;;;;;;;5.67;4.67;;;;;26.91;44.00;100310.06;5017966;28;45281;-71
2022/09/13 11:29:45;;;;;;;;;5.33;5.00;;;;;27.05;43.28;100305.84;5019038;28;46328;-71
2022/09/13 11:32:46;;;;;;;;;5.33;5.33;;;;;27.11;43.00;100301.22;5019735;28;45152;-72
2022/09/13 11:35:26;;;;;;;;;5.00;5.00;;;;;27.14;43.20;100290.59;5018392;28;45412;-71
2022/09/13 11:38:04;;;;;;;;;4.67;4.67;;;;;26.94;42.82;100257.72;5019860;28;45190;-71
2022/09/13 11:40:44;;;;;;;;;6.00;5.00;;;;;27.14;43.14;100292.50;5019155;28;45797;-71
2022/09/13 11:43:19;;;;;;;;;7.00;6.00;;;;;27.20;43.23;100302.34;5019562;28;45403;-71
2022/09/13 11:46:07;;;;;;;;;5.33;5.00;;;;;27.25;43.10;100299.69;5019606;28;45292;-70